sensor_id;sensor_type;location;lat;lon;timestamp;P1;durP1;ratioP1;P2;durP2;ratioP2
65328;SDS011;51941;52.210;5.158;2022-09-09T00:01:08;1.70;;;0.50;;
65328;SDS011;51941;52.210;5.158;2022-09-09T00:03:47;1.17;;;0.65;;
65328;SDS011;51941;52.210;5.158;2022-09-09T00:06:21;1.25;;;0.50;;
65328;SDS011;51941;52.210;5.158;2022-09-09T00:08:57;1.65;;;0.47;;
65328;SDS011;51941;52.210;5.158;2022-09-09T00:11:32;1.63;;;0.47;;
65328;SDS011;51941;52.210;5.158;2022-09-09T00:14:08;3.15;;;0.75;;
65328;SDS011;51941;52.210;5.158;2022-09-09T00:16:40;0.90;;;0.50;;
65328;SDS011;51941;52.210;5.158;2022-09-09T00:19:15;2.20;;;0.60;;
65328;SDS011;51941;52.210;5.158;2022-09-09T00:21:50;2.05;;;0.70;;
65328;SDS011;51941;52.210;5.158;2022-09-09T00:24:27;2.15;;;0.70;;
65328;SDS011;51941;52.210;5.158;2022-09-09T00:27:01;1.02;;;0.60;;
65328;SDS011;51941;52.210;5.158;2022-09-09T00:29:33;1.88;;;0.60;;
65328;SDS011;51941;52.210;5.158;2022-09-09T00:32:11;1.10;;;0.60;;
65328;SDS011;51941;52.210;5.158;2022-09-09T00:37:13;0.98;;;0.80;;
65328;SDS011;51941;52.210;5.158;2022-09-09T00:39:41;2.00;;;0.90;;
65328;SDS011;51941;52.210;5.158;2022-09-09T00:42:15;2.70;;;1.10;;
65328;SDS011;51941;52.210;5.158;2022-09-09T00:44:50;2.13;;;1.00;;
65328;SDS011;51941;52.210;5.158;2022-09-09T00:47:25;1.52;;;1.00;;
65328;SDS011;51941;52.210;5.158;2022-09-09T00:50:09;1.95;;;0.93;;
65328;SDS011;51941;52.210;5.158;2022-09-09T00:52:44;2.42;;;0.93;;
65328;SDS011;51941;52.210;5.158;2022-09-09T00:55:19;1.23;;;0.73;;
65328;SDS011;51941;52.210;5.158;2022-09-09T00:57:55;1.75;;;0.80;;
65328;SDS011;51941;52.210;5.158;2022-09-09T01:00:23;2.60;;;1.17;;
65328;SDS011;51941;52.210;5.158;2022-09-09T01:02:57;1.67;;;1.10;;
65328;SDS011;51941;52.210;5.158;2022-09-09T01:05:39;1.70;;;1.02;;
65328;SDS011;51941;52.210;5.158;2022-09-09T01:08:14;2.80;;;1.00;;
65328;SDS011;51941;52.210;5.158;2022-09-09T01:10:59;2.03;;;1.23;;
65328;SDS011;51941;52.210;5.158;2022-09-09T01:13:30;2.28;;;1.08;;
65328;SDS011;51941;52.210;5.158;2022-09-09T01:16:04;1.40;;;0.98;;
65328;SDS011;51941;52.210;5.158;2022-09-09T01:18:37;2.15;;;1.40;;
65328;SDS011;51941;52.210;5.158;2022-09-09T01:21:12;1.83;;;1.20;;
65328;SDS011;51941;52.210;5.158;2022-09-09T01:23:58;2.60;;;1.23;;
65328;SDS011;51941;52.210;5.158;2022-09-09T01:26:55;1.95;;;1.20;;
65328;SDS011;51941;52.210;5.158;2022-09-09T01:29:25;2.35;;;1.52;;
65328;SDS011;51941;52.210;5.158;2022-09-09T01:31:53;3.08;;;1.40;;
65328;SDS011;51941;52.210;5.158;2022-09-09T01:34:22;1.40;;;1.25;;
65328;SDS011;51941;52.210;5.158;2022-09-09T01:36:52;4.40;;;1.30;;
65328;SDS011;51941;52.210;5.158;2022-09-09T01:39:24;3.22;;;1.60;;
65328;SDS011;51941;52.210;5.158;2022-09-09T01:42:00;3.70;;;1.70;;
65328;SDS011;51941;52.210;5.158;2022-09-09T01:44:28;2.65;;;1.52;;
65328;SDS011;51941;52.210;5.158;2022-09-09T01:46:56;2.65;;;1.40;;
65328;SDS011;51941;52.210;5.158;2022-09-09T01:49:23;1.95;;;1.30;;
65328;SDS011;51941;52.210;5.158;2022-09-09T01:51:50;3.20;;;1.70;;
65328;SDS011;51941;52.210;5.158;2022-09-09T01:54:27;5.40;;;1.80;;
65328;SDS011;51941;52.210;5.158;2022-09-09T01:57:04;4.05;;;2.00;;
65328;SDS011;51941;52.210;5.158;2022-09-09T01:59:42;6.88;;;2.70;;
65328;SDS011;51941;52.210;5.158;2022-09-09T02:02:16;4.78;;;2.53;;
65328;SDS011;51941;52.210;5.158;2022-09-09T02:04:56;4.82;;;2.38;;
65328;SDS011;51941;52.210;5.158;2022-09-09T02:07:37;2.00;;;1.67;;
65328;SDS011;51941;52.210;5.158;2022-09-09T02:10:16;3.10;;;2.17;;
65328;SDS011;51941;52.210;5.158;2022-09-09T02:12:58;5.55;;;2.28;;
65328;SDS011;51941;52.210;5.158;2022-09-09T02:15:32;2.63;;;1.88;;
65328;SDS011;51941;52.210;5.158;2022-09-09T02:18:05;4.40;;;2.95;;
65328;SDS011;51941;52.210;5.158;2022-09-09T02:20:36;3.45;;;2.50;;
65328;SDS011;51941;52.210;5.158;2022-09-09T02:23:04;2.75;;;1.90;;
65328;SDS011;51941;52.210;5.158;2022-09-09T02:25:34;3.88;;;2.45;;
65328;SDS011;51941;52.210;5.158;2022-09-09T02:28:15;2.15;;;1.88;;
65328;SDS011;51941;52.210;5.158;2022-09-09T02:30:45;5.07;;;2.60;;
65328;SDS011;51941;52.210;5.158;2022-09-09T02:33:14;6.40;;;2.03;;
65328;SDS011;51941;52.210;5.158;2022-09-09T02:35:44;3.10;;;2.50;;
65328;SDS011;51941;52.210;5.158;2022-09-09T02:38:15;5.22;;;3.03;;
65328;SDS011;51941;52.210;5.158;2022-09-09T02:40:54;4.47;;;2.40;;
65328;SDS011;51941;52.210;5.158;2022-09-09T02:43:22;6.70;;;2.50;;
65328;SDS011;51941;52.210;5.158;2022-09-09T02:45:51;3.67;;;2.60;;
65328;SDS011;51941;52.210;5.158;2022-09-09T02:48:30;2.72;;;2.30;;
65328;SDS011;51941;52.210;5.158;2022-09-09T02:51:05;3.58;;;2.35;;
65328;SDS011;51941;52.210;5.158;2022-09-09T02:53:39;4.22;;;2.88;;
65328;SDS011;51941;52.210;5.158;2022-09-09T02:56:12;3.80;;;2.33;;
65328;SDS011;51941;52.210;5.158;2022-09-09T02:58:45;2.70;;;2.20;;
65328;SDS011;51941;52.210;5.158;2022-09-09T03:01:12;2.97;;;2.25;;
65328;SDS011;51941;52.210;5.158;2022-09-09T03:03:39;4.45;;;2.30;;
65328;SDS011;51941;52.210;5.158;2022-09-09T03:06:14;6.50;;;3.20;;
65328;SDS011;51941;52.210;5.158;2022-09-09T03:08:44;3.60;;;2.38;;
65328;SDS011;51941;52.210;5.158;2022-09-09T03:11:11;4.22;;;2.90;;
65328;SDS011;51941;52.210;5.158;2022-09-09T03:13:40;4.90;;;2.97;;
65328;SDS011;51941;52.210;5.158;2022-09-09T03:16:10;4.00;;;2.97;;
65328;SDS011;51941;52.210;5.158;2022-09-09T03:18:42;4.43;;;2.72;;
65328;SDS011;51941;52.210;5.158;2022-09-09T03:21:11;5.60;;;3.40;;
65328;SDS011;51941;52.210;5.158;2022-09-09T03:23:39;3.08;;;2.35;;
65328;SDS011;51941;52.210;5.158;2022-09-09T03:26:06;2.80;;;2.30;;
65328;SDS011;51941;52.210;5.158;2022-09-09T03:28:39;6.72;;;3.03;;
65328;SDS011;51941;52.210;5.158;2022-09-09T03:31:06;3.58;;;2.50;;
65328;SDS011;51941;52.210;5.158;2022-09-09T03:33:40;3.97;;;2.65;;
65328;SDS011;51941;52.210;5.158;2022-09-09T03:36:10;3.55;;;2.63;;
65328;SDS011;51941;52.210;5.158;2022-09-09T03:38:37;6.13;;;2.88;;
65328;SDS011;51941;52.210;5.158;2022-09-09T03:41:05;4.43;;;2.78;;
65328;SDS011;51941;52.210;5.158;2022-09-09T03:43:33;3.53;;;2.55;;
65328;SDS011;51941;52.210;5.158;2022-09-09T03:46:00;2.63;;;2.20;;
65328;SDS011;51941;52.210;5.158;2022-09-09T03:48:28;4.70;;;3.15;;
65328;SDS011;51941;52.210;5.158;2022-09-09T03:50:57;3.97;;;3.28;;
65328;SDS011;51941;52.210;5.158;2022-09-09T03:53:26;4.78;;;2.95;;
65328;SDS011;51941;52.210;5.158;2022-09-09T03:55:55;6.68;;;4.85;;
65328;SDS011;51941;52.210;5.158;2022-09-09T03:58:26;8.90;;;4.25;;
65328;SDS011;51941;52.210;5.158;2022-09-09T04:00:59;7.43;;;4.03;;
65328;SDS011;51941;52.210;5.158;2022-09-09T04:03:27;3.47;;;3.17;;
65328;SDS011;51941;52.210;5.158;2022-09-09T04:05:55;3.42;;;2.75;;
65328;SDS011;51941;52.210;5.158;2022-09-09T04:08:27;3.80;;;2.95;;
65328;SDS011;51941;52.210;5.158;2022-09-09T04:10:55;6.30;;;4.07;;
65328;SDS011;51941;52.210;5.158;2022-09-09T04:13:24;3.78;;;2.70;;
65328;SDS011;51941;52.210;5.158;2022-09-09T04:15:52;4.22;;;2.95;;
65328;SDS011;51941;52.210;5.158;2022-09-09T04:18:19;5.47;;;3.28;;
65328;SDS011;51941;52.210;5.158;2022-09-09T04:20:47;4.43;;;2.90;;
65328;SDS011;51941;52.210;5.158;2022-09-09T04:23:18;3.65;;;2.65;;
65328;SDS011;51941;52.210;5.158;2022-09-09T04:25:46;5.10;;;2.35;;
65328;SDS011;51941;52.210;5.158;2022-09-09T04:28:14;3.75;;;2.60;;
65328;SDS011;51941;52.210;5.158;2022-09-09T04:30:41;4.20;;;2.72;;
65328;SDS011;51941;52.210;5.158;2022-09-09T04:33:09;2.50;;;2.30;;
65328;SDS011;51941;52.210;5.158;2022-09-09T04:35:37;6.90;;;3.95;;
65328;SDS011;51941;52.210;5.158;2022-09-09T04:38:05;5.25;;;2.95;;
65328;SDS011;51941;52.210;5.158;2022-09-09T04:40:36;3.45;;;3.05;;
65328;SDS011;51941;52.210;5.158;2022-09-09T04:43:08;3.72;;;2.50;;
65328;SDS011;51941;52.210;5.158;2022-09-09T04:45:36;4.63;;;2.13;;
65328;SDS011;51941;52.210;5.158;2022-09-09T04:48:03;2.92;;;2.10;;
65328;SDS011;51941;52.210;5.158;2022-09-09T04:50:29;4.60;;;2.33;;
65328;SDS011;51941;52.210;5.158;2022-09-09T04:52:59;3.58;;;2.35;;
65328;SDS011;51941;52.210;5.158;2022-09-09T04:55:27;3.42;;;1.80;;
65328;SDS011;51941;52.210;5.158;2022-09-09T04:57:55;4.50;;;1.95;;
65328;SDS011;51941;52.210;5.158;2022-09-09T05:00:23;5.32;;;1.83;;
65328;SDS011;51941;52.210;5.158;2022-09-09T05:02:50;4.05;;;2.10;;
65328;SDS011;51941;52.210;5.158;2022-09-09T05:05:17;2.67;;;2.22;;
65328;SDS011;51941;52.210;5.158;2022-09-09T05:07:46;5.20;;;2.20;;
65328;SDS011;51941;52.210;5.158;2022-09-09T05:10:14;3.55;;;2.03;;
65328;SDS011;51941;52.210;5.158;2022-09-09T05:12:42;3.43;;;2.10;;
65328;SDS011;51941;52.210;5.158;2022-09-09T05:15:19;5.15;;;2.33;;
65328;SDS011;51941;52.210;5.158;2022-09-09T05:17:46;3.90;;;1.80;;
65328;SDS011;51941;52.210;5.158;2022-09-09T05:20:14;4.45;;;2.63;;
65328;SDS011;51941;52.210;5.158;2022-09-09T05:22:41;4.32;;;1.70;;
65328;SDS011;51941;52.210;5.158;2022-09-09T05:25:09;8.63;;;3.10;;
65328;SDS011;51941;52.210;5.158;2022-09-09T05:27:36;4.68;;;2.00;;
65328;SDS011;51941;52.210;5.158;2022-09-09T05:30:03;2.70;;;2.30;;
65328;SDS011;51941;52.210;5.158;2022-09-09T05:32:32;3.85;;;2.15;;
65328;SDS011;51941;52.210;5.158;2022-09-09T05:34:59;5.18;;;2.80;;
65328;SDS011;51941;52.210;5.158;2022-09-09T05:37:26;3.85;;;1.98;;
65328;SDS011;51941;52.210;5.158;2022-09-09T05:39:55;3.95;;;1.90;;
65328;SDS011;51941;52.210;5.158;2022-09-09T05:42:21;3.13;;;1.80;;
65328;SDS011;51941;52.210;5.158;2022-09-09T05:44:48;4.53;;;1.95;;
65328;SDS011;51941;52.210;5.158;2022-09-09T05:47:16;7.25;;;2.08;;
65328;SDS011;51941;52.210;5.158;2022-09-09T05:49:44;3.25;;;1.92;;
65328;SDS011;51941;52.210;5.158;2022-09-09T05:52:11;3.70;;;2.15;;
65328;SDS011;51941;52.210;5.158;2022-09-09T05:54:38;5.70;;;2.20;;
65328;SDS011;51941;52.210;5.158;2022-09-09T05:57:07;4.40;;;2.08;;
65328;SDS011;51941;52.210;5.158;2022-09-09T05:59:34;5.28;;;2.30;;
65328;SDS011;51941;52.210;5.158;2022-09-09T06:02:01;5.20;;;2.22;;
65328;SDS011;51941;52.210;5.158;2022-09-09T06:04:33;4.88;;;2.20;;
65328;SDS011;51941;52.210;5.158;2022-09-09T06:07:02;4.32;;;1.80;;
65328;SDS011;51941;52.210;5.158;2022-09-09T06:09:29;4.63;;;2.20;;
65328;SDS011;51941;52.210;5.158;2022-09-09T06:11:56;6.70;;;2.13;;
65328;SDS011;51941;52.210;5.158;2022-09-09T06:14:23;3.17;;;1.98;;
65328;SDS011;51941;52.210;5.158;2022-09-09T06:16:55;9.02;;;2.35;;
65328;SDS011;51941;52.210;5.158;2022-09-09T06:19:25;5.28;;;2.08;;
65328;SDS011;51941;52.210;5.158;2022-09-09T06:21:54;3.53;;;1.67;;
65328;SDS011;51941;52.210;5.158;2022-09-09T06:24:23;8.40;;;2.10;;
65328;SDS011;51941;52.210;5.158;2022-09-09T06:26:49;6.50;;;2.25;;
65328;SDS011;51941;52.210;5.158;2022-09-09T06:29:23;8.20;;;2.20;;
65328;SDS011;51941;52.210;5.158;2022-09-09T06:31:51;4.50;;;1.70;;
65328;SDS011;51941;52.210;5.158;2022-09-09T06:34:23;5.78;;;1.70;;
65328;SDS011;51941;52.210;5.158;2022-09-09T06:36:54;5.28;;;1.30;;
65328;SDS011;51941;52.210;5.158;2022-09-09T06:39:24;4.75;;;1.58;;
65328;SDS011;51941;52.210;5.158;2022-09-09T06:41:51;8.33;;;1.80;;
65328;SDS011;51941;52.210;5.158;2022-09-09T06:44:48;3.75;;;1.30;;
65328;SDS011;51941;52.210;5.158;2022-09-09T06:47:32;4.57;;;1.33;;
65328;SDS011;51941;52.210;5.158;2022-09-09T06:49:59;4.72;;;1.60;;
65328;SDS011;51941;52.210;5.158;2022-09-09T06:52:27;6.13;;;1.58;;
65328;SDS011;51941;52.210;5.158;2022-09-09T06:54:56;5.88;;;1.10;;
65328;SDS011;51941;52.210;5.158;2022-09-09T06:57:24;3.33;;;1.27;;
65328;SDS011;51941;52.210;5.158;2022-09-09T06:59:51;5.72;;;1.33;;
65328;SDS011;51941;52.210;5.158;2022-09-09T07:02:19;4.53;;;1.13;;
65328;SDS011;51941;52.210;5.158;2022-09-09T07:04:46;4.50;;;1.35;;
65328;SDS011;51941;52.210;5.158;2022-09-09T07:07:17;7.13;;;1.30;;
65328;SDS011;51941;52.210;5.158;2022-09-09T07:09:44;7.68;;;1.70;;
65328;SDS011;51941;52.210;5.158;2022-09-09T07:12:13;6.13;;;1.30;;
65328;SDS011;51941;52.210;5.158;2022-09-09T07:14:47;6.72;;;1.30;;
65328;SDS011;51941;52.210;5.158;2022-09-09T07:17:14;7.53;;;1.30;;
65328;SDS011;51941;52.210;5.158;2022-09-09T07:19:41;5.68;;;1.40;;
65328;SDS011;51941;52.210;5.158;2022-09-09T07:22:08;7.05;;;1.50;;
65328;SDS011;51941;52.210;5.158;2022-09-09T07:24:36;3.42;;;1.00;;
65328;SDS011;51941;52.210;5.158;2022-09-09T07:27:03;8.45;;;1.60;;
65328;SDS011;51941;52.210;5.158;2022-09-09T07:29:32;8.05;;;1.77;;
65328;SDS011;51941;52.210;5.158;2022-09-09T07:31:59;6.45;;;1.60;;
65328;SDS011;51941;52.210;5.158;2022-09-09T07:34:31;6.57;;;1.85;;
65328;SDS011;51941;52.210;5.158;2022-09-09T07:36:59;5.82;;;1.58;;
65328;SDS011;51941;52.210;5.158;2022-09-09T07:39:25;8.18;;;1.60;;
65328;SDS011;51941;52.210;5.158;2022-09-09T07:41:53;5.18;;;1.30;;
65328;SDS011;51941;52.210;5.158;2022-09-09T07:44:23;10.65;;;2.13;;
65328;SDS011;51941;52.210;5.158;2022-09-09T07:47:09;5.22;;;1.40;;
65328;SDS011;51941;52.210;5.158;2022-09-09T07:49:43;5.35;;;1.50;;
65328;SDS011;51941;52.210;5.158;2022-09-09T07:52:12;3.53;;;1.33;;
65328;SDS011;51941;52.210;5.158;2022-09-09T07:57:12;7.57;;;1.90;;
65328;SDS011;51941;52.210;5.158;2022-09-09T07:59:38;7.65;;;1.85;;
65328;SDS011;51941;52.210;5.158;2022-09-09T08:02:09;3.60;;;1.20;;
65328;SDS011;51941;52.210;5.158;2022-09-09T08:07:03;6.70;;;1.92;;
65328;SDS011;51941;52.210;5.158;2022-09-09T08:09:34;7.82;;;1.60;;
65328;SDS011;51941;52.210;5.158;2022-09-09T08:12:24;6.15;;;1.85;;
65328;SDS011;51941;52.210;5.158;2022-09-09T08:14:51;5.07;;;1.20;;
65328;SDS011;51941;52.210;5.158;2022-09-09T08:17:22;4.65;;;1.48;;
65328;SDS011;51941;52.210;5.158;2022-09-09T08:19:49;3.05;;;1.25;;
65328;SDS011;51941;52.210;5.158;2022-09-09T08:22:21;7.15;;;1.60;;
65328;SDS011;51941;52.210;5.158;2022-09-09T08:24:49;6.65;;;1.52;;
65328;SDS011;51941;52.210;5.158;2022-09-09T08:27:17;5.70;;;1.33;;
65328;SDS011;51941;52.210;5.158;2022-09-09T08:29:44;8.10;;;1.85;;
65328;SDS011;51941;52.210;5.158;2022-09-09T08:32:10;6.10;;;1.75;;
65328;SDS011;51941;52.210;5.158;2022-09-09T08:34:40;10.63;;;2.03;;
65328;SDS011;51941;52.210;5.158;2022-09-09T08:37:11;7.82;;;1.88;;
65328;SDS011;51941;52.210;5.158;2022-09-09T08:39:39;5.55;;;1.55;;
65328;SDS011;51941;52.210;5.158;2022-09-09T08:42:18;5.40;;;1.73;;
65328;SDS011;51941;52.210;5.158;2022-09-09T08:44:58;4.32;;;1.33;;
65328;SDS011;51941;52.210;5.158;2022-09-09T08:47:44;7.68;;;1.48;;
65328;SDS011;51941;52.210;5.158;2022-09-09T08:50:24;6.32;;;1.52;;
65328;SDS011;51941;52.210;5.158;2022-09-09T08:53:00;6.75;;;1.25;;
65328;SDS011;51941;52.210;5.158;2022-09-09T08:55:35;6.18;;;1.40;;
65328;SDS011;51941;52.210;5.158;2022-09-09T08:58:11;8.68;;;1.77;;
65328;SDS011;51941;52.210;5.158;2022-09-09T09:00:44;6.15;;;1.60;;
65328;SDS011;51941;52.210;5.158;2022-09-09T09:03:35;4.75;;;1.20;;
65328;SDS011;51941;52.210;5.158;2022-09-09T09:06:16;6.93;;;1.73;;
65328;SDS011;51941;52.210;5.158;2022-09-09T09:08:56;8.40;;;1.60;;
65328;SDS011;51941;52.210;5.158;2022-09-09T09:11:33;7.50;;;1.70;;
65328;SDS011;51941;52.210;5.158;2022-09-09T09:14:02;5.63;;;1.45;;
65328;SDS011;51941;52.210;5.158;2022-09-09T09:16:33;7.05;;;1.77;;
65328;SDS011;51941;52.210;5.158;2022-09-09T09:19:03;7.47;;;1.67;;
65328;SDS011;51941;52.210;5.158;2022-09-09T09:21:34;6.65;;;1.33;;
65328;SDS011;51941;52.210;5.158;2022-09-09T09:24:12;6.78;;;1.45;;
65328;SDS011;51941;52.210;5.158;2022-09-09T09:26:45;4.22;;;1.13;;
65328;SDS011;51941;52.210;5.158;2022-09-09T09:29:13;4.35;;;1.13;;
65328;SDS011;51941;52.210;5.158;2022-09-09T09:31:43;4.30;;;1.20;;
65328;SDS011;51941;52.210;5.158;2022-09-09T09:34:14;6.20;;;1.50;;
65328;SDS011;51941;52.210;5.158;2022-09-09T09:36:45;6.77;;;1.53;;
65328;SDS011;51941;52.210;5.158;2022-09-09T09:39:23;4.95;;;1.30;;
65328;SDS011;51941;52.210;5.158;2022-09-09T09:41:52;7.00;;;1.60;;
65328;SDS011;51941;52.210;5.158;2022-09-09T09:44:24;5.50;;;1.45;;
65328;SDS011;51941;52.210;5.158;2022-09-09T09:49:19;6.35;;;1.63;;
65328;SDS011;51941;52.210;5.158;2022-09-09T09:51:48;4.57;;;1.23;;
65328;SDS011;51941;52.210;5.158;2022-09-09T09:54:16;6.97;;;1.38;;
65328;SDS011;51941;52.210;5.158;2022-09-09T09:56:52;5.50;;;1.50;;
65328;SDS011;51941;52.210;5.158;2022-09-09T09:59:20;8.05;;;1.73;;
65328;SDS011;51941;52.210;5.158;2022-09-09T10:02:06;4.95;;;1.50;;
65328;SDS011;51941;52.210;5.158;2022-09-09T10:04:45;5.82;;;1.50;;
65328;SDS011;51941;52.210;5.158;2022-09-09T10:07:17;5.15;;;1.40;;
65328;SDS011;51941;52.210;5.158;2022-09-09T10:09:45;5.53;;;1.40;;
65328;SDS011;51941;52.210;5.158;2022-09-09T10:12:19;5.07;;;1.48;;
65328;SDS011;51941;52.210;5.158;2022-09-09T10:14:55;9.20;;;1.60;;
65328;SDS011;51941;52.210;5.158;2022-09-09T10:17:29;5.25;;;1.30;;
65328;SDS011;51941;52.210;5.158;2022-09-09T10:20:04;5.20;;;1.58;;
65328;SDS011;51941;52.210;5.158;2022-09-09T10:22:47;7.18;;;1.67;;
65328;SDS011;51941;52.210;5.158;2022-09-09T10:25:20;5.32;;;1.33;;
65328;SDS011;51941;52.210;5.158;2022-09-09T10:27:57;8.15;;;1.95;;
65328;SDS011;51941;52.210;5.158;2022-09-09T10:30:41;8.30;;;1.38;;
65328;SDS011;51941;52.210;5.158;2022-09-09T10:33:19;6.93;;;1.77;;
65328;SDS011;51941;52.210;5.158;2022-09-09T10:35:57;9.25;;;1.65;;
65328;SDS011;51941;52.210;5.158;2022-09-09T10:38:34;6.30;;;1.60;;
65328;SDS011;51941;52.210;5.158;2022-09-09T10:41:22;6.00;;;1.70;;
65328;SDS011;51941;52.210;5.158;2022-09-09T10:47:15;5.90;;;1.30;;
65328;SDS011;51941;52.210;5.158;2022-09-09T10:50:00;5.65;;;1.33;;
65328;SDS011;51941;52.210;5.158;2022-09-09T10:52:40;8.75;;;1.85;;
65328;SDS011;51941;52.210;5.158;2022-09-09T10:55:16;4.65;;;1.30;;
65328;SDS011;51941;52.210;5.158;2022-09-09T10:57:45;7.15;;;1.30;;
65328;SDS011;51941;52.210;5.158;2022-09-09T11:00:15;7.90;;;1.60;;
65328;SDS011;51941;52.210;5.158;2022-09-09T11:02:45;10.32;;;2.03;;
65328;SDS011;51941;52.210;5.158;2022-09-09T11:05:18;6.72;;;1.55;;
65328;SDS011;51941;52.210;5.158;2022-09-09T11:07:49;11.75;;;1.90;;
65328;SDS011;51941;52.210;5.158;2022-09-09T11:10:23;5.63;;;1.50;;
65328;SDS011;51941;52.210;5.158;2022-09-09T11:12:56;3.42;;;1.10;;
65328;SDS011;51941;52.210;5.158;2022-09-09T11:15:30;2.42;;;0.98;;
65328;SDS011;51941;52.210;5.158;2022-09-09T11:18:03;4.10;;;1.77;;
65328;SDS011;51941;52.210;5.158;2022-09-09T11:20:32;7.07;;;1.70;;
65328;SDS011;51941;52.210;5.158;2022-09-09T11:23:01;6.00;;;1.50;;
65328;SDS011;51941;52.210;5.158;2022-09-09T11:25:34;3.30;;;1.30;;
65328;SDS011;51941;52.210;5.158;2022-09-09T11:28:10;5.78;;;1.40;;
65328;SDS011;51941;52.210;5.158;2022-09-09T11:30:50;4.13;;;1.13;;
65328;SDS011;51941;52.210;5.158;2022-09-09T11:33:45;5.10;;;1.25;;
65328;SDS011;51941;52.210;5.158;2022-09-09T11:36:33;4.05;;;1.30;;
65328;SDS011;51941;52.210;5.158;2022-09-09T11:39:14;4.78;;;1.42;;
65328;SDS011;51941;52.210;5.158;2022-09-09T11:42:06;6.60;;;1.35;;
65328;SDS011;51941;52.210;5.158;2022-09-09T11:44:33;5.22;;;1.33;;
65328;SDS011;51941;52.210;5.158;2022-09-09T11:47:00;6.65;;;1.48;;
65328;SDS011;51941;52.210;5.158;2022-09-09T11:49:28;4.70;;;1.20;;
65328;SDS011;51941;52.210;5.158;2022-09-09T11:52:10;4.88;;;1.25;;
65328;SDS011;51941;52.210;5.158;2022-09-09T11:54:44;3.65;;;0.90;;
65328;SDS011;51941;52.210;5.158;2022-09-09T11:57:18;7.45;;;1.70;;
65328;SDS011;51941;52.210;5.158;2022-09-09T11:59:51;4.47;;;1.30;;
65328;SDS011;51941;52.210;5.158;2022-09-09T12:02:19;3.65;;;1.40;;
65328;SDS011;51941;52.210;5.158;2022-09-09T12:04:54;5.80;;;2.00;;
65328;SDS011;51941;52.210;5.158;2022-09-09T12:07:27;6.43;;;2.17;;
65328;SDS011;51941;52.210;5.158;2022-09-09T12:09:59;3.22;;;1.33;;
65328;SDS011;51941;52.210;5.158;2022-09-09T12:12:31;3.95;;;1.23;;
65328;SDS011;51941;52.210;5.158;2022-09-09T12:15:01;4.32;;;1.38;;
65328;SDS011;51941;52.210;5.158;2022-09-09T12:17:46;4.03;;;1.08;;
65328;SDS011;51941;52.210;5.158;2022-09-09T12:20:15;4.57;;;1.40;;
65328;SDS011;51941;52.210;5.158;2022-09-09T12:25:31;3.67;;;1.48;;
65328;SDS011;51941;52.210;5.158;2022-09-09T12:28:17;5.55;;;1.10;;
65328;SDS011;51941;52.210;5.158;2022-09-09T12:30:48;5.07;;;1.40;;
65328;SDS011;51941;52.210;5.158;2022-09-09T12:33:23;6.18;;;1.65;;
65328;SDS011;51941;52.210;5.158;2022-09-09T12:35:51;6.28;;;1.30;;
65328;SDS011;51941;52.210;5.158;2022-09-09T12:38:22;4.97;;;1.63;;
65328;SDS011;51941;52.210;5.158;2022-09-09T12:40:56;5.78;;;1.70;;
65328;SDS011;51941;52.210;5.158;2022-09-09T12:43:26;4.45;;;1.30;;
65328;SDS011;51941;52.210;5.158;2022-09-09T12:48:26;2.60;;;1.13;;
65328;SDS011;51941;52.210;5.158;2022-09-09T12:50:59;8.52;;;1.92;;
65328;SDS011;51941;52.210;5.158;2022-09-09T12:53:28;4.65;;;1.20;;
65328;SDS011;51941;52.210;5.158;2022-09-09T12:55:59;3.45;;;1.30;;
65328;SDS011;51941;52.210;5.158;2022-09-09T12:58:29;3.25;;;1.20;;
65328;SDS011;51941;52.210;5.158;2022-09-09T13:00:58;5.30;;;1.52;;
65328;SDS011;51941;52.210;5.158;2022-09-09T13:03:26;6.03;;;1.40;;
65328;SDS011;51941;52.210;5.158;2022-09-09T13:05:53;7.20;;;1.42;;
65328;SDS011;51941;52.210;5.158;2022-09-09T13:08:25;3.70;;;1.25;;
65328;SDS011;51941;52.210;5.158;2022-09-09T13:10:53;2.78;;;1.00;;
65328;SDS011;51941;52.210;5.158;2022-09-09T13:13:23;2.33;;;1.20;;
65328;SDS011;51941;52.210;5.158;2022-09-09T13:15:56;2.65;;;1.30;;
65328;SDS011;51941;52.210;5.158;2022-09-09T13:18:27;5.63;;;1.40;;
65328;SDS011;51941;52.210;5.158;2022-09-09T13:20:56;2.80;;;1.10;;
65328;SDS011;51941;52.210;5.158;2022-09-09T13:23:25;3.38;;;0.88;;
65328;SDS011;51941;52.210;5.158;2022-09-09T13:25:55;3.67;;;1.30;;
65328;SDS011;51941;52.210;5.158;2022-09-09T13:28:24;4.60;;;1.40;;
65328;SDS011;51941;52.210;5.158;2022-09-09T13:31:00;3.35;;;1.42;;
65328;SDS011;51941;52.210;5.158;2022-09-09T13:33:29;4.57;;;1.38;;
65328;SDS011;51941;52.210;5.158;2022-09-09T13:36:03;3.70;;;1.20;;
65328;SDS011;51941;52.210;5.158;2022-09-09T13:38:32;3.85;;;1.40;;
65328;SDS011;51941;52.210;5.158;2022-09-09T13:41:03;4.22;;;1.55;;
65328;SDS011;51941;52.210;5.158;2022-09-09T13:43:34;2.92;;;1.35;;
65328;SDS011;51941;52.210;5.158;2022-09-09T13:46:19;4.28;;;1.38;;
65328;SDS011;51941;52.210;5.158;2022-09-09T13:48:54;2.42;;;1.20;;
65328;SDS011;51941;52.210;5.158;2022-09-09T13:51:26;2.33;;;1.10;;
65328;SDS011;51941;52.210;5.158;2022-09-09T13:54:02;3.95;;;1.20;;
65328;SDS011;51941;52.210;5.158;2022-09-09T13:56:31;5.03;;;1.45;;
65328;SDS011;51941;52.210;5.158;2022-09-09T13:58:59;5.10;;;1.30;;
65328;SDS011;51941;52.210;5.158;2022-09-09T14:01:27;3.63;;;1.30;;
65328;SDS011;51941;52.210;5.158;2022-09-09T14:03:55;2.95;;;1.33;;
65328;SDS011;51941;52.210;5.158;2022-09-09T14:06:22;4.03;;;1.30;;
65328;SDS011;51941;52.210;5.158;2022-09-09T14:08:49;2.63;;;1.20;;
65328;SDS011;51941;52.210;5.158;2022-09-09T14:11:17;3.63;;;1.20;;
65328;SDS011;51941;52.210;5.158;2022-09-09T14:13:44;2.78;;;1.35;;
65328;SDS011;51941;52.210;5.158;2022-09-09T14:16:11;8.02;;;1.70;;
65328;SDS011;51941;52.210;5.158;2022-09-09T14:18:40;2.85;;;1.30;;
65328;SDS011;51941;52.210;5.158;2022-09-09T14:21:07;2.83;;;1.08;;
65328;SDS011;51941;52.210;5.158;2022-09-09T14:23:34;1.45;;;1.00;;
65328;SDS011;51941;52.210;5.158;2022-09-09T14:26:00;3.20;;;1.38;;
65328;SDS011;51941;52.210;5.158;2022-09-09T14:28:27;3.95;;;1.55;;
65328;SDS011;51941;52.210;5.158;2022-09-09T14:30:54;3.80;;;1.35;;
65328;SDS011;51941;52.210;5.158;2022-09-09T14:33:21;2.78;;;1.17;;
65328;SDS011;51941;52.210;5.158;2022-09-09T14:35:56;4.05;;;1.40;;
65328;SDS011;51941;52.210;5.158;2022-09-09T14:38:23;4.18;;;1.67;;
65328;SDS011;51941;52.210;5.158;2022-09-09T14:40:50;4.35;;;1.00;;
65328;SDS011;51941;52.210;5.158;2022-09-09T14:43:17;5.22;;;1.70;;
65328;SDS011;51941;52.210;5.158;2022-09-09T14:45:44;6.18;;;1.52;;
65328;SDS011;51941;52.210;5.158;2022-09-09T14:48:11;3.55;;;1.23;;
65328;SDS011;51941;52.210;5.158;2022-09-09T14:50:38;1.63;;;1.02;;
65328;SDS011;51941;52.210;5.158;2022-09-09T14:53:07;4.07;;;1.50;;
65328;SDS011;51941;52.210;5.158;2022-09-09T14:55:35;2.28;;;1.50;;
65328;SDS011;51941;52.210;5.158;2022-09-09T14:58:03;3.78;;;1.42;;
65328;SDS011;51941;52.210;5.158;2022-09-09T15:00:30;3.13;;;1.00;;
65328;SDS011;51941;52.210;5.158;2022-09-09T15:02:57;3.15;;;1.40;;
65328;SDS011;51941;52.210;5.158;2022-09-09T15:05:24;3.65;;;1.40;;
65328;SDS011;51941;52.210;5.158;2022-09-09T15:07:50;2.88;;;1.20;;
65328;SDS011;51941;52.210;5.158;2022-09-09T15:10:18;3.78;;;1.35;;
65328;SDS011;51941;52.210;5.158;2022-09-09T15:12:45;2.35;;;0.77;;
65328;SDS011;51941;52.210;5.158;2022-09-09T15:15:12;2.60;;;0.70;;
65328;SDS011;51941;52.210;5.158;2022-09-09T15:17:39;2.17;;;0.60;;
65328;SDS011;51941;52.210;5.158;2022-09-09T15:20:09;1.50;;;0.60;;
65328;SDS011;51941;52.210;5.158;2022-09-09T15:22:36;1.83;;;0.70;;
65328;SDS011;51941;52.210;5.158;2022-09-09T15:25:03;3.72;;;0.75;;
65328;SDS011;51941;52.210;5.158;2022-09-09T15:27:34;2.10;;;0.52;;
65328;SDS011;51941;52.210;5.158;2022-09-09T15:30:04;2.65;;;0.80;;
65328;SDS011;51941;52.210;5.158;2022-09-09T15:32:31;1.80;;;0.73;;